ADDS TAF Board (Experimental) INFO Settings
IDs: Format: Expanded Condensed

KCLE - Cleveland/Hopkins In, OH, US

Issued at 0944 UTC 26 Jun 2016
Updated at: 0956 UTC 26 Jun 2016
Time0951Z 26/10Z 26/11Z 26/12Z 26/13Z 26/14Z 26/15Z 26/16Z 26/17Z 26/18Z 26/19Z 26/20Z 26/21Z 26/22Z
Type OBS PRVL PRVL PRVL PRVL PRVL PRVL PRVL PRVL PRVL PRVL PRVL PRVL PRVL
VIS 10 >6 >6 >6 >6 >6 >6 >6 >6 >6 >6 >6 >6 >6
CIG -- 200 200 200 200 200 200 200 200 200 200 200 200 200
Cover FEW BKN BKN BKN BKN BKN BKN BKN BKN BKN BKN BKN BKN BKN
FltCat VFR VFR VFR VFR VFR VFR VFR VFR VFR VFR VFR VFR VFR VFR
WX -- -- -- -- -- -- -- -- -- -- -- -- -- --
WDir 180 170 170 170 170 170 170 170 170 200 200 200 200 200
WSpd 6 8 8 8 8 8 8 8 8 10 10 10 10 10
WGst -- -- -- -- -- -- -- -- -- 18 18 18 18 18
R06/24
XWnd -5 -7 -7 -7 -7 -7 -7 -7 -7 -5 -5 -5 -5 -5
XGst -- -- -- -- -- -- -- -- -- -9 -9 -9 -9 -9
HWnd -4 -4 -4 -4 -4 -4 -4 -4 -4 -9 -9 -9 -9 -9
HGst -- -- -- -- -- -- -- -- -- -16 -16 -16 -16 -16
R10/28
XWnd -6 -8 -8 -8 -8 -8 -8 -8 -8 -10 -10 -10 -10 -10
XGst -- -- -- -- -- -- -- -- -- -17 -17 -17 -17 -17
HWnd 0 2 2 2 2 2 2 2 2 -3 -3 -3 -3 -3
HGst -- -- -- -- -- -- -- -- -- -5 -5 -5 -5 -5

NOTE: TEMPO conditions in [brackets]. Keep in mind TEMPO conditions might be better (lower impact) than prevailing conditions.

Raw TAF
KCLE 260944Z 2610/2712 17008KT P6SM SCT150 BKN200
  FM261800 20010G18KT P6SM SCT050 BKN200
  FM270400 20007KT P6SM VCTS BKN050CB OVC120
  FM271000 21005KT P6SM SCT050 BKN120


Raw METAR
KCLE 260951Z 18006KT 10SM FEW250 19/14 A3012 RMK AO2 SLP195 T01890139
KCLE 260851Z 19003KT 10SM FEW250 18/13 A3013 RMK AO2 SLP196 T01830133 55009
KCLE 260751Z 17005KT 10SM FEW250 19/14 A3012 RMK AO2 SLP193 T01890139
KCLE 260651Z 16006KT 10SM CLR 19/15 A3012 RMK AO2 SLP194 T01940150

METAR Board
Radar Display
Forecast Discussion

TAF Board Legend

Potential Impact
Threat None Slight Moderate High
Visibility (sm) ≥5.1 5.1>X≥3 3>X≥1 <1
Ceiling (100 ft) ≥30.1 30.1>X≥10 10>X≥5 <5
Wind Speed (kt) <10 10≤X<20 20≤X<30 ≥30
Wind Gust (kt) <15 15≤X<25 25≤X<35 ≥35
Weather No Wx Reported VCTS,-TS,-FZRA,SN TS,FZRA +TS,+FZRA,+SN